sensor_id;sensor_type;location;lat;lon;timestamp;P1;durP1;ratioP1;P2;durP2;ratioP2
67558;SDS011;54388;53.536;49.300;2023-04-06T00:01:44;59.05;;;8.05;;
67558;SDS011;54388;53.536;49.300;2023-04-06T00:04:14;92.47;;;9.38;;
67558;SDS011;54388;53.536;49.300;2023-04-06T00:06:42;84.82;;;9.13;;
67558;SDS011;54388;53.536;49.300;2023-04-06T00:09:09;76.22;;;9.02;;
67558;SDS011;54388;53.536;49.300;2023-04-06T00:11:35;69.32;;;8.10;;
67558;SDS011;54388;53.536;49.300;2023-04-06T00:14:02;64.65;;;7.93;;
67558;SDS011;54388;53.536;49.300;2023-04-06T00:16:28;77.40;;;8.40;;
67558;SDS011;54388;53.536;49.300;2023-04-06T00:18:55;77.50;;;7.95;;
67558;SDS011;54388;53.536;49.300;2023-04-06T00:21:21;81.57;;;8.73;;
67558;SDS011;54388;53.536;49.300;2023-04-06T00:23:48;92.32;;;8.77;;
67558;SDS011;54388;53.536;49.300;2023-04-06T00:26:14;86.30;;;7.65;;
67558;SDS011;54388;53.536;49.300;2023-04-06T00:28:41;84.40;;;8.48;;
67558;SDS011;54388;53.536;49.300;2023-04-06T00:31:07;70.32;;;8.43;;
67558;SDS011;54388;53.536;49.300;2023-04-06T00:33:34;64.97;;;7.07;;
67558;SDS011;54388;53.536;49.300;2023-04-06T00:36:00;72.45;;;8.50;;
67558;SDS011;54388;53.536;49.300;2023-04-06T00:38:27;66.32;;;8.30;;
67558;SDS011;54388;53.536;49.300;2023-04-06T00:40:53;73.13;;;7.88;;
67558;SDS011;54388;53.536;49.300;2023-04-06T00:43:20;76.93;;;8.25;;
67558;SDS011;54388;53.536;49.300;2023-04-06T00:45:47;60.70;;;7.38;;
67558;SDS011;54388;53.536;49.300;2023-04-06T00:48:13;71.95;;;8.00;;
67558;SDS011;54388;53.536;49.300;2023-04-06T00:50:40;77.15;;;8.95;;
67558;SDS011;54388;53.536;49.300;2023-04-06T00:53:06;61.47;;;8.10;;
67558;SDS011;54388;53.536;49.300;2023-04-06T00:55:33;73.65;;;7.60;;
67558;SDS011;54388;53.536;49.300;2023-04-06T00:58:01;63.40;;;7.55;;
67558;SDS011;54388;53.536;49.300;2023-04-06T01:00:29;69.22;;;8.43;;
67558;SDS011;54388;53.536;49.300;2023-04-06T01:02:56;72.10;;;8.10;;
67558;SDS011;54388;53.536;49.300;2023-04-06T01:05:22;78.32;;;8.50;;
67558;SDS011;54388;53.536;49.300;2023-04-06T01:07:49;77.18;;;8.35;;
67558;SDS011;54388;53.536;49.300;2023-04-06T01:10:22;70.20;;;7.57;;
67558;SDS011;54388;53.536;49.300;2023-04-06T01:12:50;81.07;;;9.73;;
67558;SDS011;54388;53.536;49.300;2023-04-06T01:15:16;89.60;;;10.05;;
67558;SDS011;54388;53.536;49.300;2023-04-06T01:17:43;73.22;;;8.32;;
67558;SDS011;54388;53.536;49.300;2023-04-06T01:20:10;75.22;;;8.10;;
67558;SDS011;54388;53.536;49.300;2023-04-06T01:22:37;75.63;;;7.65;;
67558;SDS011;54388;53.536;49.300;2023-04-06T01:25:03;67.07;;;8.13;;
67558;SDS011;54388;53.536;49.300;2023-04-06T01:27:31;80.43;;;8.60;;
67558;SDS011;54388;53.536;49.300;2023-04-06T01:29:57;80.55;;;8.82;;
67558;SDS011;54388;53.536;49.300;2023-04-06T01:32:25;47.58;;;7.30;;
67558;SDS011;54388;53.536;49.300;2023-04-06T01:34:51;76.90;;;7.95;;
67558;SDS011;54388;53.536;49.300;2023-04-06T01:37:18;77.85;;;8.23;;
67558;SDS011;54388;53.536;49.300;2023-04-06T01:39:44;71.65;;;7.15;;
67558;SDS011;54388;53.536;49.300;2023-04-06T01:42:11;68.50;;;8.25;;
67558;SDS011;54388;53.536;49.300;2023-04-06T01:44:38;87.20;;;7.95;;
67558;SDS011;54388;53.536;49.300;2023-04-06T01:47:05;62.67;;;7.10;;
67558;SDS011;54388;53.536;49.300;2023-04-06T01:49:31;79.93;;;8.15;;
67558;SDS011;54388;53.536;49.300;2023-04-06T01:51:58;71.50;;;7.95;;
67558;SDS011;54388;53.536;49.300;2023-04-06T01:54:24;84.45;;;8.45;;
67558;SDS011;54388;53.536;49.300;2023-04-06T01:56:51;76.88;;;8.18;;
67558;SDS011;54388;53.536;49.300;2023-04-06T01:59:18;69.28;;;7.90;;
67558;SDS011;54388;53.536;49.300;2023-04-06T02:01:45;73.32;;;8.30;;
67558;SDS011;54388;53.536;49.300;2023-04-06T02:04:11;72.20;;;7.82;;
67558;SDS011;54388;53.536;49.300;2023-04-06T02:06:39;59.72;;;7.10;;
67558;SDS011;54388;53.536;49.300;2023-04-06T02:09:06;69.22;;;8.13;;
67558;SDS011;54388;53.536;49.300;2023-04-06T02:11:32;85.95;;;9.65;;
67558;SDS011;54388;53.536;49.300;2023-04-06T02:13:59;79.80;;;9.35;;
67558;SDS011;54388;53.536;49.300;2023-04-06T02:16:26;68.60;;;8.10;;
67558;SDS011;54388;53.536;49.300;2023-04-06T02:18:53;73.40;;;9.48;;
67558;SDS011;54388;53.536;49.300;2023-04-06T02:21:19;76.57;;;9.02;;
67558;SDS011;54388;53.536;49.300;2023-04-06T02:23:46;102.88;;;9.13;;
67558;SDS011;54388;53.536;49.300;2023-04-06T02:26:13;72.93;;;9.65;;
67558;SDS011;54388;53.536;49.300;2023-04-06T02:28:40;87.60;;;9.07;;
67558;SDS011;54388;53.536;49.300;2023-04-06T02:31:07;75.90;;;9.20;;
67558;SDS011;54388;53.536;49.300;2023-04-06T02:33:34;77.82;;;9.40;;
67558;SDS011;54388;53.536;49.300;2023-04-06T02:36:01;92.03;;;9.30;;
67558;SDS011;54388;53.536;49.300;2023-04-06T02:38:27;77.43;;;8.98;;
67558;SDS011;54388;53.536;49.300;2023-04-06T02:40:54;72.78;;;9.50;;
67558;SDS011;54388;53.536;49.300;2023-04-06T02:43:20;106.97;;;9.93;;
67558;SDS011;54388;53.536;49.300;2023-04-06T02:45:47;73.03;;;9.15;;
67558;SDS011;54388;53.536;49.300;2023-04-06T02:48:13;72.28;;;8.25;;
67558;SDS011;54388;53.536;49.300;2023-04-06T02:50:40;77.68;;;8.90;;
67558;SDS011;54388;53.536;49.300;2023-04-06T02:53:06;71.78;;;9.10;;
67558;SDS011;54388;53.536;49.300;2023-04-06T02:55:33;70.65;;;9.15;;
67558;SDS011;54388;53.536;49.300;2023-04-06T02:58:00;68.75;;;8.07;;
67558;SDS011;54388;53.536;49.300;2023-04-06T03:00:27;72.45;;;9.63;;
67558;SDS011;54388;53.536;49.300;2023-04-06T03:02:53;69.85;;;7.93;;
67558;SDS011;54388;53.536;49.300;2023-04-06T03:05:21;80.82;;;9.57;;
67558;SDS011;54388;53.536;49.300;2023-04-06T03:07:47;75.18;;;9.50;;
67558;SDS011;54388;53.536;49.300;2023-04-06T03:10:13;91.82;;;10.50;;
67558;SDS011;54388;53.536;49.300;2023-04-06T03:12:40;68.47;;;10.18;;
67558;SDS011;54388;53.536;49.300;2023-04-06T03:15:07;80.95;;;8.90;;
67558;SDS011;54388;53.536;49.300;2023-04-06T03:17:34;88.97;;;10.10;;
67558;SDS011;54388;53.536;49.300;2023-04-06T03:20:01;67.97;;;9.10;;
67558;SDS011;54388;53.536;49.300;2023-04-06T03:22:28;58.72;;;8.20;;
67558;SDS011;54388;53.536;49.300;2023-04-06T03:24:55;74.90;;;8.57;;
67558;SDS011;54388;53.536;49.300;2023-04-06T03:27:22;72.72;;;8.05;;
67558;SDS011;54388;53.536;49.300;2023-04-06T03:29:48;54.65;;;8.18;;
67558;SDS011;54388;53.536;49.300;2023-04-06T03:32:15;54.03;;;7.43;;
67558;SDS011;54388;53.536;49.300;2023-04-06T03:34:41;54.47;;;6.80;;
67558;SDS011;54388;53.536;49.300;2023-04-06T03:37:08;47.80;;;6.53;;
67558;SDS011;54388;53.536;49.300;2023-04-06T03:39:35;63.60;;;7.47;;
67558;SDS011;54388;53.536;49.300;2023-04-06T03:42:02;41.38;;;7.00;;
67558;SDS011;54388;53.536;49.300;2023-04-06T03:44:28;57.80;;;7.18;;
67558;SDS011;54388;53.536;49.300;2023-04-06T03:46:55;46.67;;;8.13;;
67558;SDS011;54388;53.536;49.300;2023-04-06T03:49:21;58.70;;;8.45;;
67558;SDS011;54388;53.536;49.300;2023-04-06T03:51:48;58.60;;;11.18;;
67558;SDS011;54388;53.536;49.300;2023-04-06T03:54:15;45.95;;;6.28;;
67558;SDS011;54388;53.536;49.300;2023-04-06T03:56:41;63.75;;;8.50;;
67558;SDS011;54388;53.536;49.300;2023-04-06T03:59:08;45.40;;;5.30;;
67558;SDS011;54388;53.536;49.300;2023-04-06T04:01:34;44.50;;;5.60;;
67558;SDS011;54388;53.536;49.300;2023-04-06T04:04:01;50.10;;;7.03;;
67558;SDS011;54388;53.536;49.300;2023-04-06T04:06:27;49.33;;;5.78;;
67558;SDS011;54388;53.536;49.300;2023-04-06T04:08:53;56.75;;;5.88;;
67558;SDS011;54388;53.536;49.300;2023-04-06T04:11:20;45.72;;;5.82;;
67558;SDS011;54388;53.536;49.300;2023-04-06T04:13:49;42.42;;;6.18;;
67558;SDS011;54388;53.536;49.300;2023-04-06T04:16:16;108.75;;;8.13;;
67558;SDS011;54388;53.536;49.300;2023-04-06T04:18:42;52.30;;;6.20;;
67558;SDS011;54388;53.536;49.300;2023-04-06T04:21:09;55.15;;;6.82;;
67558;SDS011;54388;53.536;49.300;2023-04-06T04:23:35;56.55;;;6.68;;
67558;SDS011;54388;53.536;49.300;2023-04-06T04:26:02;60.28;;;7.07;;
67558;SDS011;54388;53.536;49.300;2023-04-06T04:28:28;55.42;;;6.40;;
67558;SDS011;54388;53.536;49.300;2023-04-06T04:30:55;59.25;;;6.68;;
67558;SDS011;54388;53.536;49.300;2023-04-06T04:33:22;44.72;;;6.82;;
67558;SDS011;54388;53.536;49.300;2023-04-06T04:35:48;41.15;;;5.28;;
67558;SDS011;54388;53.536;49.300;2023-04-06T04:38:15;45.65;;;6.10;;
67558;SDS011;54388;53.536;49.300;2023-04-06T04:40:42;53.80;;;6.28;;
67558;SDS011;54388;53.536;49.300;2023-04-06T04:43:08;48.08;;;5.20;;
67558;SDS011;54388;53.536;49.300;2023-04-06T04:45:35;57.25;;;6.40;;
67558;SDS011;54388;53.536;49.300;2023-04-06T04:48:01;52.35;;;6.28;;
67558;SDS011;54388;53.536;49.300;2023-04-06T04:50:30;35.63;;;5.88;;
67558;SDS011;54388;53.536;49.300;2023-04-06T04:52:57;31.98;;;5.18;;
67558;SDS011;54388;53.536;49.300;2023-04-06T04:55:24;46.75;;;5.63;;
67558;SDS011;54388;53.536;49.300;2023-04-06T04:57:51;60.53;;;6.50;;
67558;SDS011;54388;53.536;49.300;2023-04-06T05:00:18;48.55;;;6.03;;
67558;SDS011;54388;53.536;49.300;2023-04-06T05:02:46;45.42;;;6.43;;
67558;SDS011;54388;53.536;49.300;2023-04-06T05:05:12;27.15;;;4.70;;
67558;SDS011;54388;53.536;49.300;2023-04-06T05:07:39;36.30;;;5.65;;
67558;SDS011;54388;53.536;49.300;2023-04-06T05:10:06;47.00;;;5.75;;
67558;SDS011;54388;53.536;49.300;2023-04-06T05:12:33;38.90;;;5.10;;
67558;SDS011;54388;53.536;49.300;2023-04-06T05:15:00;31.25;;;4.07;;
67558;SDS011;54388;53.536;49.300;2023-04-06T05:17:26;31.20;;;3.90;;
67558;SDS011;54388;53.536;49.300;2023-04-06T05:19:53;35.47;;;4.30;;
67558;SDS011;54388;53.536;49.300;2023-04-06T05:22:20;30.38;;;4.72;;
67558;SDS011;54388;53.536;49.300;2023-04-06T05:24:46;36.25;;;4.82;;
67558;SDS011;54388;53.536;49.300;2023-04-06T05:27:13;43.72;;;5.88;;
67558;SDS011;54388;53.536;49.300;2023-04-06T05:29:40;35.58;;;3.90;;
67558;SDS011;54388;53.536;49.300;2023-04-06T05:32:06;35.83;;;4.20;;
67558;SDS011;54388;53.536;49.300;2023-04-06T05:34:33;23.88;;;3.53;;
67558;SDS011;54388;53.536;49.300;2023-04-06T05:36:59;33.50;;;5.13;;
67558;SDS011;54388;53.536;49.300;2023-04-06T05:39:26;24.85;;;4.50;;
67558;SDS011;54388;53.536;49.300;2023-04-06T05:41:53;28.23;;;3.65;;
67558;SDS011;54388;53.536;49.300;2023-04-06T05:44:19;26.67;;;4.13;;
67558;SDS011;54388;53.536;49.300;2023-04-06T05:46:45;38.83;;;4.55;;
67558;SDS011;54388;53.536;49.300;2023-04-06T05:49:12;28.30;;;4.13;;
67558;SDS011;54388;53.536;49.300;2023-04-06T05:51:39;27.63;;;4.10;;
67558;SDS011;54388;53.536;49.300;2023-04-06T05:54:05;32.88;;;4.15;;
67558;SDS011;54388;53.536;49.300;2023-04-06T05:56:32;30.63;;;4.20;;
67558;SDS011;54388;53.536;49.300;2023-04-06T05:58:59;41.05;;;4.95;;
67558;SDS011;54388;53.536;49.300;2023-04-06T06:01:26;31.98;;;4.53;;
67558;SDS011;54388;53.536;49.300;2023-04-06T06:03:53;36.05;;;4.93;;
67558;SDS011;54388;53.536;49.300;2023-04-06T06:06:19;25.08;;;4.32;;
67558;SDS011;54388;53.536;49.300;2023-04-06T06:08:46;31.90;;;4.93;;
67558;SDS011;54388;53.536;49.300;2023-04-06T06:11:13;28.23;;;4.20;;
67558;SDS011;54388;53.536;49.300;2023-04-06T06:13:40;39.72;;;4.57;;
67558;SDS011;54388;53.536;49.300;2023-04-06T06:16:07;32.85;;;4.70;;
67558;SDS011;54388;53.536;49.300;2023-04-06T06:18:34;17.33;;;2.92;;
67558;SDS011;54388;53.536;49.300;2023-04-06T06:21:02;23.67;;;3.35;;
67558;SDS011;54388;53.536;49.300;2023-04-06T06:23:29;27.75;;;4.00;;
67558;SDS011;54388;53.536;49.300;2023-04-06T06:25:56;30.63;;;4.57;;
67558;SDS011;54388;53.536;49.300;2023-04-06T06:28:24;32.50;;;4.65;;
67558;SDS011;54388;53.536;49.300;2023-04-06T06:30:51;32.22;;;4.82;;
67558;SDS011;54388;53.536;49.300;2023-04-06T06:33:18;37.83;;;4.93;;
67558;SDS011;54388;53.536;49.300;2023-04-06T06:35:45;32.22;;;5.05;;
67558;SDS011;54388;53.536;49.300;2023-04-06T06:38:11;32.33;;;4.25;;
67558;SDS011;54388;53.536;49.300;2023-04-06T06:40:39;29.52;;;4.70;;
67558;SDS011;54388;53.536;49.300;2023-04-06T06:43:06;41.00;;;5.18;;
67558;SDS011;54388;53.536;49.300;2023-04-06T06:45:33;43.90;;;5.75;;
67558;SDS011;54388;53.536;49.300;2023-04-06T06:48:00;34.47;;;4.28;;
67558;SDS011;54388;53.536;49.300;2023-04-06T06:50:27;34.10;;;4.88;;
67558;SDS011;54388;53.536;49.300;2023-04-06T06:52:54;20.73;;;4.22;;
67558;SDS011;54388;53.536;49.300;2023-04-06T06:55:21;29.77;;;4.47;;
67558;SDS011;54388;53.536;49.300;2023-04-06T06:57:48;19.73;;;3.53;;
67558;SDS011;54388;53.536;49.300;2023-04-06T07:00:14;31.35;;;4.43;;
67558;SDS011;54388;53.536;49.300;2023-04-06T07:02:42;23.00;;;3.95;;
67558;SDS011;54388;53.536;49.300;2023-04-06T07:05:08;24.58;;;4.53;;
67558;SDS011;54388;53.536;49.300;2023-04-06T07:07:36;22.08;;;4.20;;
67558;SDS011;54388;53.536;49.300;2023-04-06T07:10:02;31.58;;;4.40;;
67558;SDS011;54388;53.536;49.300;2023-04-06T07:12:29;24.05;;;3.72;;
67558;SDS011;54388;53.536;49.300;2023-04-06T07:14:56;29.42;;;4.18;;
67558;SDS011;54388;53.536;49.300;2023-04-06T07:17:24;21.75;;;4.63;;
67558;SDS011;54388;53.536;49.300;2023-04-06T07:19:50;29.38;;;4.68;;
67558;SDS011;54388;53.536;49.300;2023-04-06T07:22:17;30.35;;;4.75;;
67558;SDS011;54388;53.536;49.300;2023-04-06T07:24:44;24.65;;;4.32;;
67558;SDS011;54388;53.536;49.300;2023-04-06T07:27:11;32.80;;;4.20;;
67558;SDS011;54388;53.536;49.300;2023-04-06T07:29:38;26.38;;;3.88;;
67558;SDS011;54388;53.536;49.300;2023-04-06T07:32:05;26.40;;;3.70;;
67558;SDS011;54388;53.536;49.300;2023-04-06T07:34:32;25.90;;;3.58;;
67558;SDS011;54388;53.536;49.300;2023-04-06T07:36:59;24.80;;;4.18;;
67558;SDS011;54388;53.536;49.300;2023-04-06T07:39:26;33.45;;;4.40;;
67558;SDS011;54388;53.536;49.300;2023-04-06T07:41:54;23.80;;;4.18;;
67558;SDS011;54388;53.536;49.300;2023-04-06T07:44:21;27.42;;;4.32;;
67558;SDS011;54388;53.536;49.300;2023-04-06T07:46:48;33.67;;;5.03;;
67558;SDS011;54388;53.536;49.300;2023-04-06T07:49:15;29.40;;;4.50;;
67558;SDS011;54388;53.536;49.300;2023-04-06T07:51:41;31.15;;;3.78;;
67558;SDS011;54388;53.536;49.300;2023-04-06T07:54:08;33.10;;;4.55;;
67558;SDS011;54388;53.536;49.300;2023-04-06T07:56:35;20.92;;;3.55;;
67558;SDS011;54388;53.536;49.300;2023-04-06T07:59:02;21.17;;;4.47;;
67558;SDS011;54388;53.536;49.300;2023-04-06T08:01:29;23.42;;;5.47;;
67558;SDS011;54388;53.536;49.300;2023-04-06T08:03:57;23.77;;;4.47;;
67558;SDS011;54388;53.536;49.300;2023-04-06T08:06:24;31.48;;;5.00;;
67558;SDS011;54388;53.536;49.300;2023-04-06T08:08:52;33.00;;;6.35;;
67558;SDS011;54388;53.536;49.300;2023-04-06T08:11:19;26.55;;;4.68;;
67558;SDS011;54388;53.536;49.300;2023-04-06T08:13:45;19.02;;;4.05;;
67558;SDS011;54388;53.536;49.300;2023-04-06T08:16:12;25.42;;;5.15;;
67558;SDS011;54388;53.536;49.300;2023-04-06T08:18:39;21.48;;;3.70;;
67558;SDS011;54388;53.536;49.300;2023-04-06T08:21:06;29.75;;;5.57;;
67558;SDS011;54388;53.536;49.300;2023-04-06T08:23:33;29.38;;;5.72;;
67558;SDS011;54388;53.536;49.300;2023-04-06T08:26:00;30.73;;;5.53;;
67558;SDS011;54388;53.536;49.300;2023-04-06T08:28:27;21.88;;;5.75;;
67558;SDS011;54388;53.536;49.300;2023-04-06T08:30:54;27.05;;;4.90;;
67558;SDS011;54388;53.536;49.300;2023-04-06T08:33:21;32.15;;;5.78;;
67558;SDS011;54388;53.536;49.300;2023-04-06T08:35:48;21.33;;;5.80;;
67558;SDS011;54388;53.536;49.300;2023-04-06T08:38:14;21.02;;;4.75;;
67558;SDS011;54388;53.536;49.300;2023-04-06T08:40:41;25.77;;;4.78;;
67558;SDS011;54388;53.536;49.300;2023-04-06T08:43:12;27.00;;;4.32;;
67558;SDS011;54388;53.536;49.300;2023-04-06T08:45:40;17.20;;;3.53;;
67558;SDS011;54388;53.536;49.300;2023-04-06T08:48:08;35.08;;;5.00;;
67558;SDS011;54388;53.536;49.300;2023-04-06T08:50:38;28.25;;;5.82;;
67558;SDS011;54388;53.536;49.300;2023-04-06T08:53:06;26.80;;;4.25;;
67558;SDS011;54388;53.536;49.300;2023-04-06T08:55:34;24.52;;;4.10;;
67558;SDS011;54388;53.536;49.300;2023-04-06T08:58:01;22.05;;;3.97;;
67558;SDS011;54388;53.536;49.300;2023-04-06T09:00:30;29.23;;;4.63;;
67558;SDS011;54388;53.536;49.300;2023-04-06T09:02:57;12.40;;;2.65;;
67558;SDS011;54388;53.536;49.300;2023-04-06T09:05:25;15.00;;;3.75;;
67558;SDS011;54388;53.536;49.300;2023-04-06T09:07:52;24.88;;;3.80;;
67558;SDS011;54388;53.536;49.300;2023-04-06T09:10:20;31.88;;;4.60;;
67558;SDS011;54388;53.536;49.300;2023-04-06T09:12:49;24.58;;;4.03;;
67558;SDS011;54388;53.536;49.300;2023-04-06T09:15:18;23.17;;;3.95;;
67558;SDS011;54388;53.536;49.300;2023-04-06T09:17:47;38.53;;;4.80;;
67558;SDS011;54388;53.536;49.300;2023-04-06T09:20:14;30.23;;;3.85;;
67558;SDS011;54388;53.536;49.300;2023-04-06T09:23:22;14.35;;;3.33;;
67558;SDS011;54388;53.536;49.300;2023-04-06T09:25:49;25.80;;;3.33;;
67558;SDS011;54388;53.536;49.300;2023-04-06T09:28:16;27.55;;;3.70;;
67558;SDS011;54388;53.536;49.300;2023-04-06T09:30:48;34.40;;;4.78;;
67558;SDS011;54388;53.536;49.300;2023-04-06T09:33:21;21.13;;;3.53;;
67558;SDS011;54388;53.536;49.300;2023-04-06T09:35:51;11.55;;;2.47;;
67558;SDS011;54388;53.536;49.300;2023-04-06T09:38:17;39.33;;;3.75;;
67558;SDS011;54388;53.536;49.300;2023-04-06T09:40:48;35.38;;;3.30;;
67558;SDS011;54388;53.536;49.300;2023-04-06T09:43:28;30.42;;;3.42;;
67558;SDS011;54388;53.536;49.300;2023-04-06T09:45:56;14.95;;;2.30;;
67558;SDS011;54388;53.536;49.300;2023-04-06T09:48:24;23.70;;;3.05;;
67558;SDS011;54388;53.536;49.300;2023-04-06T09:50:53;19.25;;;2.97;;
67558;SDS011;54388;53.536;49.300;2023-04-06T09:53:25;20.83;;;2.47;;
67558;SDS011;54388;53.536;49.300;2023-04-06T09:55:57;26.20;;;2.65;;
67558;SDS011;54388;53.536;49.300;2023-04-06T09:58:31;25.33;;;3.40;;
67558;SDS011;54388;53.536;49.300;2023-04-06T10:01:07;18.73;;;3.33;;
67558;SDS011;54388;53.536;49.300;2023-04-06T10:03:51;23.60;;;3.03;;
67558;SDS011;54388;53.536;49.300;2023-04-06T10:06:20;21.20;;;3.17;;
67558;SDS011;54388;53.536;49.300;2023-04-06T10:08:49;26.35;;;3.05;;
67558;SDS011;54388;53.536;49.300;2023-04-06T10:11:20;17.00;;;2.47;;
67558;SDS011;54388;53.536;49.300;2023-04-06T10:13:47;24.90;;;3.38;;
67558;SDS011;54388;53.536;49.300;2023-04-06T10:16:15;61.05;;;4.47;;
67558;SDS011;54388;53.536;49.300;2023-04-06T10:18:45;20.65;;;2.83;;
67558;SDS011;54388;53.536;49.300;2023-04-06T10:21:21;19.52;;;2.58;;
67558;SDS011;54388;53.536;49.300;2023-04-06T10:23:52;29.52;;;4.10;;
67558;SDS011;54388;53.536;49.300;2023-04-06T10:26:23;21.73;;;2.90;;
67558;SDS011;54388;53.536;49.300;2023-04-06T10:28:50;22.40;;;2.72;;
67558;SDS011;54388;53.536;49.300;2023-04-06T10:31:24;29.05;;;3.00;;
67558;SDS011;54388;53.536;49.300;2023-04-06T10:33:54;22.58;;;2.67;;
67558;SDS011;54388;53.536;49.300;2023-04-06T10:36:27;11.07;;;2.13;;
67558;SDS011;54388;53.536;49.300;2023-04-06T10:38:58;19.65;;;2.85;;
67558;SDS011;54388;53.536;49.300;2023-04-06T10:44:21;10.15;;;2.05;;
67558;SDS011;54388;53.536;49.300;2023-04-06T10:46:58;42.22;;;3.30;;
67558;SDS011;54388;53.536;49.300;2023-04-06T10:49:29;16.85;;;2.35;;
67558;SDS011;54388;53.536;49.300;2023-04-06T10:51:56;24.17;;;2.65;;
67558;SDS011;54388;53.536;49.300;2023-04-06T10:54:25;23.77;;;2.63;;
67558;SDS011;54388;53.536;49.300;2023-04-06T10:56:53;17.00;;;2.75;;
67558;SDS011;54388;53.536;49.300;2023-04-06T10:59:20;18.27;;;2.83;;
67558;SDS011;54388;53.536;49.300;2023-04-06T11:01:47;25.95;;;3.65;;
67558;SDS011;54388;53.536;49.300;2023-04-06T11:04:17;24.77;;;2.92;;
67558;SDS011;54388;53.536;49.300;2023-04-06T11:06:46;21.65;;;2.30;;
67558;SDS011;54388;53.536;49.300;2023-04-06T11:09:27;13.05;;;2.80;;
67558;SDS011;54388;53.536;49.300;2023-04-06T11:11:55;13.10;;;2.50;;
67558;SDS011;54388;53.536;49.300;2023-04-06T11:14:22;23.88;;;3.05;;
67558;SDS011;54388;53.536;49.300;2023-04-06T11:16:49;6.05;;;2.28;;
67558;SDS011;54388;53.536;49.300;2023-04-06T11:19:17;16.42;;;4.00;;
67558;SDS011;54388;53.536;49.300;2023-04-06T11:21:44;22.60;;;3.75;;
67558;SDS011;54388;53.536;49.300;2023-04-06T11:24:19;33.40;;;8.57;;
67558;SDS011;54388;53.536;49.300;2023-04-06T11:32:01;16.10;;;3.70;;
67558;SDS011;54388;53.536;49.300;2023-04-06T11:34:30;28.13;;;4.78;;
67558;SDS011;54388;53.536;49.300;2023-04-06T11:37:09;31.48;;;5.70;;
67558;SDS011;54388;53.536;49.300;2023-04-06T11:42:06;18.73;;;5.55;;
67558;SDS011;54388;53.536;49.300;2023-04-06T11:44:37;20.52;;;4.18;;
67558;SDS011;54388;53.536;49.300;2023-04-06T11:47:06;23.77;;;5.05;;
67558;SDS011;54388;53.536;49.300;2023-04-06T11:49:39;21.20;;;5.68;;
67558;SDS011;54388;53.536;49.300;2023-04-06T11:54:44;26.55;;;4.32;;
67558;SDS011;54388;53.536;49.300;2023-04-06T11:57:12;17.23;;;2.83;;
67558;SDS011;54388;53.536;49.300;2023-04-06T11:59:39;20.50;;;2.78;;
67558;SDS011;54388;53.536;49.300;2023-04-06T12:02:05;25.35;;;3.80;;
67558;SDS011;54388;53.536;49.300;2023-04-06T12:04:32;21.38;;;3.40;;
67558;SDS011;54388;53.536;49.300;2023-04-06T12:06:59;19.20;;;2.63;;
67558;SDS011;54388;53.536;49.300;2023-04-06T12:09:26;25.98;;;4.30;;
67558;SDS011;54388;53.536;49.300;2023-04-06T12:11:53;11.73;;;3.83;;
67558;SDS011;54388;53.536;49.300;2023-04-06T12:14:20;21.90;;;4.47;;
67558;SDS011;54388;53.536;49.300;2023-04-06T12:16:46;22.00;;;4.03;;
67558;SDS011;54388;53.536;49.300;2023-04-06T12:19:13;21.27;;;3.28;;
67558;SDS011;54388;53.536;49.300;2023-04-06T12:21:40;24.95;;;3.70;;
67558;SDS011;54388;53.536;49.300;2023-04-06T12:24:07;28.65;;;3.47;;
67558;SDS011;54388;53.536;49.300;2023-04-06T12:26:34;16.77;;;2.78;;
67558;SDS011;54388;53.536;49.300;2023-04-06T12:29:03;30.80;;;3.40;;
67558;SDS011;54388;53.536;49.300;2023-04-06T12:31:34;15.75;;;4.22;;
67558;SDS011;54388;53.536;49.300;2023-04-06T12:34:02;22.65;;;3.13;;
67558;SDS011;54388;53.536;49.300;2023-04-06T12:36:29;20.02;;;3.13;;
67558;SDS011;54388;53.536;49.300;2023-04-06T12:38:56;17.77;;;3.88;;
67558;SDS011;54388;53.536;49.300;2023-04-06T12:41:23;26.55;;;3.60;;
67558;SDS011;54388;53.536;49.300;2023-04-06T12:43:50;12.98;;;1.92;;
67558;SDS011;54388;53.536;49.300;2023-04-06T12:46:17;18.52;;;2.88;;
67558;SDS011;54388;53.536;49.300;2023-04-06T12:48:43;16.85;;;4.07;;
67558;SDS011;54388;53.536;49.300;2023-04-06T12:51:10;11.80;;;3.15;;
67558;SDS011;54388;53.536;49.300;2023-04-06T12:53:37;25.75;;;4.03;;
67558;SDS011;54388;53.536;49.300;2023-04-06T12:56:14;14.73;;;3.20;;
67558;SDS011;54388;53.536;49.300;2023-04-06T12:58:46;20.95;;;3.63;;
67558;SDS011;54388;53.536;49.300;2023-04-06T13:01:13;14.07;;;2.88;;
67558;SDS011;54388;53.536;49.300;2023-04-06T13:03:43;23.15;;;3.00;;
67558;SDS011;54388;53.536;49.300;2023-04-06T13:06:10;19.40;;;3.03;;
67558;SDS011;54388;53.536;49.300;2023-04-06T13:08:37;27.92;;;3.22;;
67558;SDS011;54388;53.536;49.300;2023-04-06T13:11:06;18.55;;;2.70;;
67558;SDS011;54388;53.536;49.300;2023-04-06T13:13:36;16.15;;;2.35;;
67558;SDS011;54388;53.536;49.300;2023-04-06T13:16:07;17.42;;;3.33;;
67558;SDS011;54388;53.536;49.300;2023-04-06T13:18:34;15.75;;;4.45;;
67558;SDS011;54388;53.536;49.300;2023-04-06T13:21:04;15.50;;;3.05;;
67558;SDS011;54388;53.536;49.300;2023-04-06T13:23:31;20.15;;;2.85;;
67558;SDS011;54388;53.536;49.300;2023-04-06T13:28:29;16.23;;;3.28;;
67558;SDS011;54388;53.536;49.300;2023-04-06T13:30:57;21.80;;;3.60;;
67558;SDS011;54388;53.536;49.300;2023-04-06T13:33:26;14.32;;;3.20;;
67558;SDS011;54388;53.536;49.300;2023-04-06T13:35:53;18.88;;;3.17;;
67558;SDS011;54388;53.536;49.300;2023-04-06T13:38:20;18.02;;;2.95;;
67558;SDS011;54388;53.536;49.300;2023-04-06T13:40:46;23.05;;;3.33;;
67558;SDS011;54388;53.536;49.300;2023-04-06T13:43:13;18.23;;;3.55;;
67558;SDS011;54388;53.536;49.300;2023-04-06T13:45:39;18.17;;;2.75;;
67558;SDS011;54388;53.536;49.300;2023-04-06T13:48:06;19.13;;;2.47;;
67558;SDS011;54388;53.536;49.300;2023-04-06T13:50:33;18.38;;;2.75;;
67558;SDS011;54388;53.536;49.300;2023-04-06T13:53:00;17.40;;;3.63;;
67558;SDS011;54388;53.536;49.300;2023-04-06T13:55:27;11.02;;;3.40;;
67558;SDS011;54388;53.536;49.300;2023-04-06T13:57:54;29.42;;;3.28;;
67558;SDS011;54388;53.536;49.300;2023-04-06T14:00:21;31.20;;;3.38;;
67558;SDS011;54388;53.536;49.300;2023-04-06T14:02:47;9.40;;;2.15;;
67558;SDS011;54388;53.536;49.300;2023-04-06T14:05:14;29.98;;;3.60;;
67558;SDS011;54388;53.536;49.300;2023-04-06T14:07:40;10.27;;;2.33;;
67558;SDS011;54388;53.536;49.300;2023-04-06T14:10:07;17.48;;;2.63;;
67558;SDS011;54388;53.536;49.300;2023-04-06T14:12:42;20.88;;;2.88;;
67558;SDS011;54388;53.536;49.300;2023-04-06T14:15:12;19.75;;;3.05;;
67558;SDS011;54388;53.536;49.300;2023-04-06T14:17:39;12.55;;;2.83;;
67558;SDS011;54388;53.536;49.300;2023-04-06T14:20:06;12.90;;;3.03;;
67558;SDS011;54388;53.536;49.300;2023-04-06T14:22:33;11.20;;;2.70;;
67558;SDS011;54388;53.536;49.300;2023-04-06T14:24:59;13.30;;;2.40;;
67558;SDS011;54388;53.536;49.300;2023-04-06T14:27:26;15.10;;;2.75;;
67558;SDS011;54388;53.536;49.300;2023-04-06T14:29:53;12.75;;;2.50;;
67558;SDS011;54388;53.536;49.300;2023-04-06T14:32:20;29.10;;;3.05;;
67558;SDS011;54388;53.536;49.300;2023-04-06T14:34:47;10.20;;;2.50;;
67558;SDS011;54388;53.536;49.300;2023-04-06T14:37:13;16.42;;;2.90;;
67558;SDS011;54388;53.536;49.300;2023-04-06T14:39:40;13.70;;;2.60;;